Weather observations for the past three days for
Atlantic City, Atlantic City International Airport
| Date | Time (edt) | Wind (kph) | Vis. (km) | Weather | Sky Cond. | Temperature (ºC) | Relative Humidity | Wind Chill (°C) | Heat Index (°C) | Pressure | Precipitation (cm) | ||||||
|---|---|---|---|---|---|---|---|---|---|---|---|---|---|---|---|---|---|
| Air | Dwpt | 6 hour | altimeter (cm) | sea level (mb) | 1 hr | 3 hr | 6 hr | ||||||||||
| Max. | Min. | ||||||||||||||||
| 31 | 11:54 | NE 9 | 16.09 | Partly Cloudy | SCT014 | 25.6 | 22.2 | 82% | 27 | 76.5 | 0.0 | ||||||
| 31 | 10:54 | E 13 | 16.09 | Partly Cloudy | SCT020 | 24.4 | 22.2 | 88% | 25 | 76.5 | 0.0 | ||||||
| 31 | 09:54 | NE 7 | 16.09 | Fair | CLR | 22.2 | 21.7 | 97% | 76.53 | 1021.4 | |||||||
| 31 | 08:54 | NE 7 | 16.09 | Mostly Cloudy | BKN050 | 21.1 | 21.1 | 100% | 76.53 | 1021.4 | |||||||
| 31 | 07:54 | Calm | 11.27 | Mostly Cloudy | BKN045 | 20 | 20 | 100% | 76.5 | 1021.1 | |||||||
| 31 | 06:54 | Calm | 0.80 | Fog | VV002 | 20 | 20 | 100% | 76.45 | 0.0 | |||||||
| 31 | 05:54 | Calm | 16.09 | Mostly Cloudy | BKN045 | 21.1 | 21.1 | 100% | 76.4 | 1019.7 | |||||||
| 31 | 04:54 | Calm | 16.09 | Mostly Cloudy | BKN045 | 21.1 | 21.1 | 100% | 76.38 | 0.0 | |||||||
| 31 | 00:54 | SW 13 | 16.09 | Fair | CLR | 22.8 | 22.8 | 100% | 76.43 | 1020.1 | |||||||
| 30 | 21:54 | SW 13 | 16.09 | Fair | CLR | 23.9 | 22.8 | 94% | 23 | 76.48 | 1020.7 | ||||||
| 30 | 20:54 | SW 15 | 16.09 | Fair | CLR | 23.9 | 22.8 | 94% | 23 | 76.48 | 1020.7 | ||||||
| 30 | 19:54 | SW 15 | 16.09 | Fair | CLR | 25 | 22.8 | 88% | 26 | 76.43 | 0.0 | ||||||
| 30 | 17:54 | S 19 | 16.09 | Fair | CLR | 26.1 | 22.2 | 79% | 28 | 76.43 | 0.0 | ||||||
| 30 | 15:54 | SW 20 | 16.09 | Partly Cloudy | SCT040 | 28.9 | 21.7 | 65% | 32 | 76.48 | 0.0 | ||||||
| 30 | 14:54 | SW 19 | 16.09 | Fair | CLR | 28.9 | 20.6 | 61% | 31 | 76.5 | 0.0 | ||||||
| 30 | 13:54 | S 15 | 16.09 | Fair | CLR | 27.8 | 21.7 | 69% | 30 | 76.63 | 0.0 | ||||||
| 30 | 12:54 | S 19 | 16.09 | Partly Cloudy | SCT030 | 27.8 | 21.1 | 67% | 30 | 76.63 | 0.0 | ||||||
| 30 | 11:54 | SW 19 | 16.09 | Partly Cloudy | SCT030 | 27.2 | 20.6 | 67% | 29 | 76.63 | 1022.8 | ||||||
| 30 | 10:54 | SW 17 | 16.09 | Fair | CLR | 26.1 | 20.6 | 72% | 28 | 76.68 | 1023.5 | ||||||
| 30 | 09:54 | SW 15 | 16.09 | A Few Clouds | FEW035 | 25 | 20 | 74% | 26 | 76.71 | 1023.8 | ||||||
| 30 | 08:54 | SW 11 | 16.09 | A Few Clouds | FEW035 | 21.7 | 20.6 | 94% | 76.76 | 1024.5 | |||||||
| 29 | 23:54 | Calm | 16.09 | Fair | CLR | 15.6 | 15.6 | 100% | 76.73 | 0.0 | |||||||
| 29 | 22:54 | Calm | 16.09 | Fair | CLR | 16.7 | 16.7 | 100% | 76.76 | 1024.5 | |||||||
| 29 | 21:54 | Calm | 16.09 | Fair | CLR | 18.3 | 17.8 | 97% | 76.73 | 1024.1 | |||||||
| 29 | 20:54 | E 9 | 16.09 | Fair | CLR | 17.8 | 17.2 | 96% | 76.73 | 1024.1 | |||||||
| 29 | 19:54 | Calm | 16.09 | Fair | CLR | 20 | 17.8 | 87% | 76.71 | 0.0 | |||||||
| 29 | 17:54 | E 7 | 16.09 | Fair | CLR | 23.9 | 17.8 | 69% | 25 | 76.71 | 0.0 | ||||||
| 29 | 16:54 | SE 15 | 16.09 | Partly Cloudy | SCT050 | 25 | 17.8 | 64% | 26 | 76.76 | 0.0 | ||||||
| 29 | 15:54 | SE 15 | 16.09 | Partly Cloudy | SCT050 | 25 | 17.8 | 64% | 26 | 76.76 | 0.0 | ||||||
| 29 | 14:54 | W 7 | 16.09 | Fair | CLR | 26.1 | 16.1 | 54% | 27 | 76.76 | 0.0 | ||||||
| 29 | 14:00 | NW 6 | 16.09 | Fair | CLR | 26 | 16 | 54% | 27 | 76.81 | 0.0 | ||||||
| 29 | 13:54 | NE 11 | 16.09 | Fair | CLR | 23.9 | 16.1 | 62% | 25 | 76.81 | 0.0 | ||||||
| 29 | 13:00 | N 9 | 16.09 | Fair | CLR | 24 | 16 | 61% | 25 | 76.81 | 0.0 | ||||||
| 29 | 12:54 | NE 11 | 16.09 | Fair | CLR | 24.4 | 16.1 | 60% | 26 | 76.81 | 0.0 | ||||||
| 29 | 10:54 | NE 11 | 16.09 | Fair | CLR | 21.7 | 16.7 | 73% | 76.81 | 1025.1 | |||||||
| 29 | 09:54 | N 13 | 16.09 | Fair | CLR | 20 | 15.6 | 76% | 76.78 | 0.0 | |||||||
| 29 | 08:54 | NE 11 | 16.09 | Fair | CLR | 18.3 | 15 | 81% | 76.76 | 1024.5 | |||||||
| 29 | 07:54 | N 11 | 16.09 | Fair | CLR | 17 | 14 | 83% | 76.73 | 0.0 | |||||||
| 28 | 23:54 | NW 9 | 16.09 | Fair | CLR | 20 | 20 | 100% | 76.4 | 0.0 | |||||||
| 28 | 22:54 | Calm | 16.09 | Fair | CLR | 21.7 | 21.7 | 100% | 76.38 | 0.0 | |||||||
| 28 | 20:54 | Calm | 16.09 | Fair | CLR | 22.2 | 22.2 | 100% | 76.35 | 1019.0 | |||||||
| 28 | 18:54 | S 6 | 16.09 | Fair | CLR | 24.4 | 22.8 | 91% | 24 | 76.25 | 0.0 | ||||||
| 28 | 17:54 | W 7 | 16.09 | Fair | CLR | 25 | 22.8 | 88% | 26 | 76.25 | 1017.7 | ||||||
| 28 | 15:54 | S 7 | 16.09 | Mostly Cloudy | BKN040 | 23.3 | 21.1 | 88% | 76.3 | 0.0 | |||||||
| 28 | 14:54 | NW 6 | 16.09 | Overcast | OVC040 | 20 | 20 | 100% | 76.28 | 0.0 | |||||||
| 28 | 13:54 | NE 15 | 11.27 | Overcast | OVC016 | 21.1 | 21.1 | 100% | 76.3 | 0.0 | |||||||
| Date | Time (edt) | Wind (kph) | Vis. (km) | Weather | Sky Cond. | Air | Dwpt | Max. | Min. | Relative Humidity | Wind Chill (°C) | Heat Index (°C) | altimeter (cm) | sea level (mb) | 1 hr | 3 hr | 6 hr |
| 6 hour | |||||||||||||||||
| Temperature (ºC) | Pressure | Precipitation (cm) | |||||||||||||||